Time;durP1;ratioP1;P1;durP2;ratioP2;P2;SDS_P1;SDS_P2;PMS_P1;PMS_P2;Temp;Humidity;BMP_temperature;BMP_pressure;BME280_temperature;BME280_humidity;BME280_pressure;Samples;Min_cycle;Max_cycle;Signal;HPM_P1;HPM_P2
2021/11/14 00:00:29;;;;;;;27.40;22.93;;;;;;;1.71;82.50;101497.55;1703497;83;21138;-64
2021/11/14 00:02:58;;;;;;;28.60;21.47;;;;;;;1.66;82.72;101497.02;1697325;83;21582;-63
2021/11/14 00:05:24;;;;;;;29.03;20.23;;;;;;;1.68;82.69;101488.55;1720359;82;21079;-63
2021/11/14 00:07:52;;;;;;;29.15;20.62;;;;;;;1.67;82.61;101499.98;1695981;83;21087;-63
2021/11/14 00:10:19;;;;;;;31.03;21.07;;;;;;;1.63;82.62;101495.89;1700858;82;21071;-62
2021/11/14 00:12:47;;;;;;;28.00;21.03;;;;;;;1.60;82.88;101502.69;1707544;83;21043;-62
2021/11/14 00:15:13;;;;;;;30.27;21.53;;;;;;;1.49;83.14;101502.06;1706396;82;21103;-65
2021/11/14 00:17:39;;;;;;;31.60;21.65;;;;;;;1.43;83.40;101499.84;1715082;82;21525;-63
2021/11/14 00:20:11;;;;;;;29.13;21.40;;;;;;;1.43;83.52;101502.92;1707432;83;21463;-63
2021/11/14 00:25:10;;;;;;;29.83;20.83;;;;;;;1.58;83.30;101494.03;1884153;74;22098;-64
2021/11/14 00:27:37;;;;;;;33.77;21.77;;;;;;;1.53;83.16;101498.77;1830216;76;20982;-64
2021/11/14 00:30:05;;;;;;;32.43;24.53;;;;;;;1.50;83.12;101501.59;1833267;76;21971;-63
2021/11/14 00:32:32;;;;;;;33.40;23.23;;;;;;;1.46;83.09;101499.62;1803813;77;21509;-63
2021/11/14 00:34:59;;;;;;;28.30;21.82;;;;;;;1.46;82.79;101497.48;1790851;77;21032;-63
2021/11/14 00:37:25;;;;;;;;;;;;;;;1.48;82.42;101494.28;1788259;79;21029;-61
2021/11/14 00:39:51;;;;;;;28.27;21.03;;;;;;;1.46;82.15;101491.75;1820212;78;20127;-64
2021/11/14 00:42:17;;;;;;;30.23;22.85;;;;;;;1.38;82.16;101482.70;1811760;79;21024;-64
2021/11/14 00:44:44;;;;;;;33.13;23.50;;;;;;;1.32;82.36;101486.58;1790159;77;20981;-64
2021/11/14 00:47:11;;;;;;;26.30;21.35;;;;;;;1.25;82.54;101482.17;1779489;80;21048;-64
2021/11/14 00:49:38;;;;;;;29.73;22.13;;;;;;;1.20;82.50;101482.10;1787315;79;21001;-62
2021/11/14 00:52:05;;;;;;;28.30;20.57;;;;;;;1.16;82.50;101480.14;1779264;79;20966;-61
2021/11/14 00:54:32;;;;;;;26.83;20.53;;;;;;;1.20;82.27;101477.69;1785121;80;21107;-64
2021/11/14 00:56:59;;;;;;;24.77;19.27;;;;;;;1.24;82.09;101479.64;1803917;77;20988;-67
2021/11/14 00:59:24;;;;;;;32.50;21.00;;;;;;;1.25;81.99;101476.92;1804659;77;21471;-66
2021/11/14 01:01:51;;;;;;;30.52;21.12;;;;;;;1.25;82.05;101474.30;1812230;77;21498;-66
2021/11/14 01:04:18;;;;;;;28.93;22.27;;;;;;;1.21;82.08;101479.38;1790877;79;20957;-65
2021/11/14 01:06:45;;;;;;;27.73;21.20;;;;;;;0.97;82.16;101448.50;1792296;77;21555;-64
2021/11/14 01:09:13;;;;;;;26.47;21.37;;;;;;;1.14;82.28;101478.92;1801588;77;21562;-65
2021/11/14 01:11:39;;;;;;;28.40;22.07;;;;;;;1.15;82.12;101479.79;1783597;79;20955;-65
2021/11/14 01:14:05;;;;;;;31.23;22.48;;;;;;;1.19;81.87;101477.33;1810906;77;21038;-63
2021/11/14 01:16:31;;;;;;;26.42;20.88;;;;;;;1.19;81.74;101477.33;1816385;77;21025;-64
2021/11/14 01:18:58;;;;;;;27.82;21.00;;;;;;;1.20;81.83;101482.10;1809228;77;21026;-64
2021/11/14 01:21:27;;;;;;;33.92;22.55;;;;;;;1.18;82.07;101478.26;1823766;77;21025;-64
2021/11/14 01:23:55;;;;;;;24.77;20.17;;;;;;;1.15;82.21;101481.94;1771798;79;21067;-63
2021/11/14 01:26:22;;;;;;;27.27;20.53;;;;;;;1.15;82.32;101471.91;1786220;79;21576;-65
2021/11/14 01:28:49;;;;;;;28.33;20.77;;;;;;;1.18;81.89;101476.94;1811179;79;21023;-64
2021/11/14 01:31:16;;;;;;;;;;;;;;;1.23;81.79;101481.44;1747379;81;21015;-65
2021/11/14 01:33:42;;;;;;;28.07;21.30;;;;;;;1.26;81.72;101478.63;1750302;81;20119;-64
2021/11/14 01:36:08;;;;;;;25.75;20.72;;;;;;;1.27;81.86;101484.70;1751182;80;21103;-64
2021/11/14 01:38:34;;;;;;;35.08;21.87;;;;;;;1.29;81.91;101483.66;1744052;80;21460;-64
2021/11/14 01:41:06;;;;;;;33.23;22.40;;;;;;;1.29;81.86;101485.45;1756277;80;21033;-64
2021/11/14 01:43:39;;;;;;;33.17;22.47;;;;;;;1.27;81.86;101484.23;1725866;81;21622;-66
2021/11/14 01:46:05;;;;;;;26.53;21.37;;;;;;;1.24;81.88;101484.42;1731424;81;21493;-64
2021/11/14 01:48:33;;;;;;;;;;;;;;;1.26;81.95;101479.07;1742425;81;21237;-63
2021/11/14 01:50:59;;;;;;;27.90;20.87;;;;;;;1.34;81.68;101478.95;1744456;81;20160;-64
2021/11/14 01:53:26;;;;;;;;;;;;;;;1.34;81.49;101481.58;1747188;81;21062;-64
2021/11/14 01:55:53;;;;;;;30.37;20.63;;;;;;;1.39;81.61;101483.06;1758399;79;20188;-64
2021/11/14 01:58:24;;;;;;;24.43;18.67;;;;;;;1.35;81.84;101485.88;1783419;79;20994;-64
2021/11/14 02:01:01;;;;;;;30.33;22.00;;;;;;;1.36;81.65;101480.17;1779715;76;21044;-63
2021/11/14 02:03:30;;;;;;;29.33;22.13;;;;;;;1.30;81.23;101486.66;1836327;76;21062;-63
2021/11/14 02:05:59;;;;;;;28.37;21.80;;;;;;;1.29;81.50;101498.10;1832325;76;20992;-64
2021/11/14 02:08:26;;;;;;;27.30;20.47;;;;;;;1.37;81.47;101492.34;1838664;76;21082;-65
2021/11/14 02:10:53;;;;;;;30.73;21.27;;;;;;;1.44;81.18;101492.80;1841177;76;21525;-64
2021/11/14 02:13:20;;;;;;;32.15;22.58;;;;;;;1.48;81.12;101492.97;1773939;79;21525;-64
2021/11/14 02:15:48;;;;;;;25.27;19.40;;;;;;;1.49;80.84;101490.72;1768856;79;21022;-62
2021/11/14 02:18:17;;;;;;;27.97;22.27;;;;;;;1.44;80.69;101487.55;1733671;81;21524;-64
2021/11/14 02:20:46;;;;;;;30.97;23.30;;;;;;;1.36;80.95;101491.52;1746553;81;21052;-64
2021/11/14 02:23:16;;;;;;;32.50;23.73;;;;;;;1.31;81.24;101487.02;1767008;79;21092;-63
2021/11/14 02:25:47;;;;;;;31.50;21.97;;;;;;;1.33;81.18;101483.82;1725158;82;21316;-64
2021/11/14 02:28:15;;;;;;;31.80;22.43;;;;;;;1.40;81.04;101492.16;1728515;81;21008;-64
2021/11/14 02:30:42;;;;;;;31.70;23.47;;;;;;;1.44;80.96;101493.64;1696514;84;21530;-64
2021/11/14 02:33:09;;;;;;;25.83;21.23;;;;;;;1.48;81.03;101494.28;1734151;81;21063;-64
2021/11/14 02:35:36;;;;;;;26.20;21.25;;;;;;;1.49;81.06;101497.30;1763843;80;21360;-65
2021/11/14 02:38:04;;;;;;;31.00;22.07;;;;;;;1.48;81.13;101494.28;1773150;80;21120;-64
2021/11/14 02:40:30;;;;;;;29.27;22.47;;;;;;;1.47;81.09;101496.07;1763677;80;21045;-65
2021/11/14 02:42:57;;;;;;;28.35;21.30;;;;;;;1.45;81.06;101498.41;1773429;80;21029;-65
2021/11/14 02:45:27;;;;;;;27.67;19.35;;;;;;;1.48;81.08;101502.99;1784673;79;20979;-64
2021/11/14 02:47:55;;;;;;;36.43;22.57;;;;;;;1.54;80.75;101499.98;1742333;80;20967;-64
2021/11/14 02:50:22;;;;;;;34.93;22.27;;;;;;;1.58;80.59;101500.59;1721377;82;21069;-64
2021/11/14 02:52:50;;;;;;;29.77;20.47;;;;;;;1.60;80.64;101501.37;1744406;81;21017;-65
2021/11/14 02:55:20;;;;;;;31.93;22.43;;;;;;;1.60;80.75;101494.80;1729217;81;21196;-63
2021/11/14 02:57:46;;;;;;;31.50;21.83;;;;;;;1.58;80.66;101494.51;1740227;82;21001;-64
2021/11/14 03:00:18;;;;;;;23.85;20.75;;;;;;;1.53;80.63;101491.72;1745297;80;21517;-63
2021/11/14 03:02:44;;;;;;;31.10;22.37;;;;;;;1.49;80.48;101491.55;1749537;81;21005;-63
2021/11/14 03:05:15;;;;;;;27.77;21.33;;;;;;;1.49;80.24;101494.66;1743841;81;21544;-64
2021/11/14 03:07:43;;;;;;;25.87;21.37;;;;;;;1.50;80.23;101487.13;1722896;82;21097;-63
2021/11/14 03:10:13;;;;;;;31.07;22.43;;;;;;;1.50;80.18;101495.02;1741904;81;21077;-64
2021/11/14 03:12:39;;;;;;;30.37;22.27;;;;;;;1.48;80.45;101485.08;1761400;80;21102;-64
2021/11/14 03:15:07;;;;;;;31.23;22.77;;;;;;;1.41;80.43;101486.42;1777580;80;21466;-63
2021/11/14 03:17:34;;;;;;;30.67;22.07;;;;;;;1.31;80.64;101488.81;1776272;81;21055;-64
2021/11/14 03:20:01;;;;;;;26.17;21.20;;;;;;;1.26;80.83;101490.89;1777341;80;21159;-63
2021/11/14 03:22:26;;;;;;;;;;;;;;;1.27;80.78;101489.48;1755649;80;20999;-65
2021/11/14 03:24:53;;;;;;;26.23;20.03;;;;;;;1.30;80.63;101488.42;1749029;79;20126;-64
2021/11/14 03:27:23;;;;;;;32.45;21.23;;;;;;;1.24;80.73;101484.89;1757052;79;21194;-63
2021/11/14 03:29:50;;;;;;;33.37;23.00;;;;;;;1.22;80.85;101482.36;1758636;79;21024;-63
2021/11/14 03:32:16;;;;;;;27.67;21.93;;;;;;;1.19;81.06;101481.27;1753004;79;20948;-64
2021/11/14 03:34:42;;;;;;;36.38;23.27;;;;;;;1.15;81.23;101478.47;1759045;80;21066;-63
2021/11/14 03:37:14;;;;;;;38.77;23.07;;;;;;;1.12;81.48;101478.66;1762285;80;21476;-65
2021/11/14 03:39:41;;;;;;;34.97;24.17;;;;;;;1.11;81.63;101476.52;1741711;82;21043;-63
2021/11/14 03:42:07;;;;;;;33.53;24.43;;;;;;;1.17;81.55;101485.78;1771575;80;20967;-63
2021/11/14 03:44:35;;;;;;;35.00;23.17;;;;;;;1.24;81.48;101485.73;1762877;80;21034;-64
2021/11/14 03:47:03;;;;;;;33.07;22.87;;;;;;;1.28;81.39;101485.06;1769240;80;21021;-63
2021/11/14 03:49:29;;;;;;;31.03;23.40;;;;;;;1.30;81.46;101483.17;1755273;80;21035;-65
2021/11/14 03:51:56;;;;;;;34.63;25.07;;;;;;;1.31;81.51;101479.14;1772614;80;20975;-64
2021/11/14 03:54:24;;;;;;;32.45;25.72;;;;;;;1.30;81.51;101476.61;1775010;80;21118;-63
2021/11/14 03:56:51;;;;;;;34.63;24.47;;;;;;;1.27;81.54;101478.97;1775436;80;22054;-65
2021/11/14 03:59:18;;;;;;;33.10;24.02;;;;;;;1.13;81.56;101461.95;1756779;80;21073;-63
2021/11/14 04:01:44;;;;;;;32.73;23.13;;;;;;;1.31;81.26;101481.77;1764275;81;21041;-64
2021/11/14 04:04:11;;;;;;;32.00;22.90;;;;;;;1.32;81.06;101481.32;1771431;80;20995;-63
2021/11/14 04:06:37;;;;;;;44.30;25.85;;;;;;;1.33;81.21;101482.50;1764284;80;20972;-61
2021/11/14 04:09:04;;;;;;;44.33;28.70;;;;;;;1.32;81.36;101483.95;1754824;81;21025;-61
2021/11/14 04:11:31;;;;;;;42.58;24.77;;;;;;;1.29;81.73;101490.70;1768010;80;21040;-62
2021/11/14 04:13:56;;;;;;;42.53;26.50;;;;;;;1.24;82.00;101488.84;1747275;81;21656;-61
2021/11/14 04:16:23;;;;;;;47.93;27.87;;;;;;;1.14;82.13;101483.34;1768466;81;21515;-60
2021/11/14 04:18:49;;;;;;;40.88;23.85;;;;;;;1.08;82.25;101479.33;1760149;81;21078;-61
2021/11/14 04:21:15;;;;;;;47.33;25.90;;;;;;;1.05;82.56;101482.14;1759150;81;21034;-60
2021/11/14 04:23:41;;;;;;;43.98;24.47;;;;;;;1.07;82.79;101477.63;1758421;81;21695;-62
2021/11/14 04:26:09;;;;;;;43.10;25.88;;;;;;;1.05;82.91;101481.30;1756141;81;21181;-61
2021/11/14 04:28:36;;;;;;;47.80;24.67;;;;;;;1.02;83.10;101478.86;1760844;81;21525;-61
2021/11/14 04:31:03;;;;;;;44.93;28.87;;;;;;;0.99;83.58;101474.66;1764105;80;21103;-61
2021/11/14 04:33:30;;;;;;;48.60;27.40;;;;;;;0.97;83.79;101477.86;1760020;81;21595;-62
2021/11/14 04:35:57;;;;;;;52.93;27.80;;;;;;;0.99;83.97;101477.77;1749095;81;20991;-62
2021/11/14 04:38:24;;;;;;;46.25;27.42;;;;;;;1.03;83.85;101477.94;1757770;80;21483;-62
2021/11/14 04:40:51;;;;;;;51.50;27.83;;;;;;;1.08;84.04;101474.55;1737632;80;21529;-63
2021/11/14 04:43:21;;;;;;;63.20;31.77;;;;;;;1.14;84.02;101476.30;1771591;79;21090;-63
2021/11/14 04:45:50;;;;;;;51.90;30.07;;;;;;;1.05;84.35;101474.27;1769000;80;21006;-63
2021/11/14 04:48:17;;;;;;;55.77;28.67;;;;;;;0.99;85.17;101475.14;1749945;80;21006;-63
2021/11/14 04:50:45;;;;;;;55.57;31.80;;;;;;;0.92;85.15;101480.80;1761785;81;21030;-61
2021/11/14 04:53:12;;;;;;;58.13;30.43;;;;;;;0.86;85.89;101477.22;1752055;81;21038;-62
2021/11/14 04:55:40;;;;;;;60.63;31.05;;;;;;;0.83;86.36;101475.26;1744556;80;21401;-61
2021/11/14 04:58:07;;;;;;;60.17;32.93;;;;;;;0.82;86.40;101474.42;1747354;81;20959;-63
2021/11/14 05:00:39;;;;;;;49.47;29.97;;;;;;;0.86;86.67;101476.39;1759456;80;21568;-62
2021/11/14 05:03:06;;;;;;;47.67;28.80;;;;;;;0.88;86.92;101478.44;1747037;81;21531;-64
2021/11/14 05:05:33;;;;;;;63.05;32.40;;;;;;;0.88;87.09;101478.44;1772173;79;20970;-63
2021/11/14 05:08:01;;;;;;;60.73;34.73;;;;;;;0.90;86.83;101490.52;1775376;80;21532;-62
2021/11/14 05:10:28;;;;;;;60.70;32.73;;;;;;;0.94;86.55;101492.03;1779990;79;21002;-63
2021/11/14 05:12:54;;;;;;;56.77;34.05;;;;;;;0.99;86.35;101493.52;1763142;80;21070;-63
2021/11/14 05:15:20;;;;;;;64.17;34.60;;;;;;;1.00;86.06;101493.88;1773849;80;21043;-62
2021/11/14 05:17:46;;;;;;;55.55;33.35;;;;;;;1.03;86.19;101498.94;1737740;80;21010;-63
2021/11/14 05:20:14;;;;;;;62.23;31.70;;;;;;;1.08;86.24;101494.25;1753553;79;21050;-62
2021/11/14 05:22:40;;;;;;;;;;;;;;;1.12;86.27;101497.05;1777411;80;21042;-62
2021/11/14 05:25:09;;;;;;;47.43;27.93;;;;;;;1.14;86.02;101497.78;1778300;81;20428;-62
2021/11/14 05:27:35;;;;;;;56.20;33.97;;;;;;;1.10;86.11;101500.24;1761581;81;21030;-62
2021/11/14 05:30:07;;;;;;;56.30;33.00;;;;;;;1.09;86.03;101506.42;1754453;81;21122;-62
2021/11/14 05:32:35;;;;;;;50.27;29.63;;;;;;;1.14;86.25;101503.88;1761907;81;21014;-61
2021/11/14 05:35:01;;;;;;;56.80;32.73;;;;;;;1.18;86.08;101505.83;1772711;79;20994;-61
2021/11/14 05:37:27;;;;;;;48.50;29.52;;;;;;;1.13;85.93;101515.78;1767192;79;21002;-62
2021/11/14 05:39:54;;;;;;;48.42;32.38;;;;;;;1.08;85.91;101513.94;1752870;80;20996;-62
2021/11/14 05:42:20;;;;;;;50.47;33.30;;;;;;;1.08;86.01;101519.20;1758459;80;21051;-63
2021/11/14 05:44:46;;;;;;;49.42;32.13;;;;;;;1.06;86.15;101518.45;1753615;79;21082;-62
2021/11/14 05:47:12;;;;;;;49.13;31.97;;;;;;;1.11;86.35;101518.98;1786255;79;20972;-62
2021/11/14 05:49:38;;;;;;;55.85;33.67;;;;;;;1.15;86.48;101523.95;1775517;79;21565;-61
2021/11/14 05:52:06;;;;;;;64.55;37.15;;;;;;;1.22;86.59;101530.95;1775920;79;21089;-61
2021/11/14 05:54:34;;;;;;;58.83;34.20;;;;;;;1.26;86.76;101525.91;1791100;79;21149;-61
2021/11/14 05:57:00;;;;;;;53.08;30.70;;;;;;;1.28;86.84;101527.09;1765928;79;20985;-62
2021/11/14 05:59:43;;;;;;;57.23;32.47;;;;;;;1.26;86.82;101531.16;1767994;81;21011;-62
2021/11/14 06:06:57;;;;;;;53.80;33.03;;;;;;;1.16;86.13;101535.30;1770815;81;21026;-63
2021/11/14 06:09:23;;;;;;;54.73;33.90;;;;;;;1.20;86.51;101531.52;1762508;81;21484;-64
2021/11/14 06:11:50;;;;;;;52.90;34.35;;;;;;;1.23;86.62;101535.28;1777414;80;20979;-63
2021/11/14 06:14:18;;;;;;;55.77;33.00;;;;;;;1.27;86.81;101531.98;1782787;79;21026;-63
2021/11/14 06:16:44;;;;;;;53.65;31.60;;;;;;;1.32;86.80;101532.06;1781452;80;20994;-62
2021/11/14 06:19:13;;;;;;;57.33;32.53;;;;;;;1.33;86.70;101519.28;1754337;80;21066;-63
2021/11/14 06:21:40;;;;;;;51.50;31.57;;;;;;;1.44;86.54;101530.90;1752423;80;21546;-64
2021/11/14 06:24:07;;;;;;;;;;;;;;;1.50;86.57;101540.52;1776005;80;21113;-64
2021/11/14 06:26:34;;;;;;;54.60;32.17;;;;;;;1.52;86.76;101537.80;1766762;80;20163;-63
2021/11/14 06:29:00;;;;;;;58.52;33.50;;;;;;;1.51;87.15;101542.70;1781445;79;21173;-62
2021/11/14 06:31:26;;;;;;;52.30;33.05;;;;;;;1.55;86.61;101537.61;1780143;79;21066;-63
2021/11/14 06:33:52;;;;;;;48.80;31.05;;;;;;;1.61;86.34;101536.37;1782336;80;21450;-63
2021/11/14 06:36:19;;;;;;;52.75;32.93;;;;;;;1.69;86.08;101541.47;1775883;80;20983;-63
2021/11/14 06:38:45;;;;;;;;;;;;;;;1.74;85.69;101541.19;1771467;80;21045;-64
2021/11/14 06:41:11;;;;;;;55.50;34.47;;;;;;;1.75;85.57;101541.53;1777766;80;20185;-64
2021/11/14 06:43:37;;;;;;;54.95;34.43;;;;;;;1.64;85.79;101541.41;1777480;79;20964;-62
2021/11/14 06:46:03;;;;;;;56.42;35.28;;;;;;;1.60;85.71;101543.86;1747735;79;20979;-63
2021/11/14 06:48:32;;;;;;;50.60;32.70;;;;;;;1.60;85.77;101551.30;1762014;80;21055;-64
2021/11/14 06:50:58;;;;;;;51.97;31.07;;;;;;;1.66;85.93;101546.11;1772081;80;22044;-63
2021/11/14 06:53:24;;;;;;;49.45;31.55;;;;;;;1.76;86.06;101549.81;1767143;80;21010;-61
2021/11/14 06:55:51;;;;;;;48.58;32.80;;;;;;;1.83;85.70;101554.17;1764367;81;21597;-63
2021/11/14 06:58:17;;;;;;;57.20;36.88;;;;;;;1.82;85.43;101553.82;1782061;80;20963;-60
2021/11/14 07:00:43;;;;;;;58.73;35.52;;;;;;;1.78;85.69;101549.72;1775668;80;21097;-62
2021/11/14 07:03:12;;;;;;;53.20;34.27;;;;;;;1.75;85.85;101554.23;1763533;81;20994;-61
2021/11/14 07:05:38;;;;;;;58.27;36.63;;;;;;;1.78;85.84;101551.03;1756461;81;21008;-63
2021/11/14 07:08:05;;;;;;;60.08;37.65;;;;;;;1.83;85.70;101551.54;1772290;81;21077;-60
2021/11/14 07:10:33;;;;;;;62.77;39.33;;;;;;;1.87;85.74;101549.11;1763631;79;20967;-62
2021/11/14 07:12:59;;;;;;;58.83;36.58;;;;;;;1.91;85.68;101546.16;1766005;79;21012;-63
2021/11/14 07:15:25;;;;;;;56.33;34.67;;;;;;;2.00;85.85;101547.79;1776968;79;21014;-62
2021/11/14 07:17:54;;;;;;;60.27;38.27;;;;;;;2.08;85.56;101544.19;1775882;79;21043;-63
2021/11/14 07:20:20;;;;;;;64.55;36.58;;;;;;;2.11;85.22;101542.20;1776728;79;21797;-62
2021/11/14 07:22:47;;;;;;;61.95;35.73;;;;;;;2.17;85.33;101542.70;1780409;79;21091;-61
2021/11/14 07:25:18;;;;;;;56.80;36.83;;;;;;;2.18;85.03;101535.20;1776321;79;21593;-63
2021/11/14 07:27:48;;;;;;;56.23;36.13;;;;;;;2.16;85.18;101540.55;1751228;80;20989;-61
2021/11/14 07:30:16;;;;;;;62.40;39.40;;;;;;;2.18;85.54;101536.03;1766522;80;21098;-62
2021/11/14 07:32:43;;;;;;;57.37;36.40;;;;;;;2.19;85.08;101536.41;1754370;80;21015;-62
2021/11/14 07:35:13;;;;;;;53.60;35.97;;;;;;;2.22;84.95;101539.30;1753399;81;21106;-64
2021/11/14 07:37:40;;;;;;;53.70;35.33;;;;;;;2.24;84.90;101540.03;1761101;81;21071;-63
2021/11/14 07:40:09;;;;;;;55.10;34.97;;;;;;;2.28;85.18;101538.87;1775258;80;21089;-64
2021/11/14 07:42:38;;;;;;;57.47;36.23;;;;;;;2.31;85.13;101542.14;1768203;80;20967;-63
2021/11/14 07:45:06;;;;;;;63.70;42.05;;;;;;;2.33;85.29;101538.92;1761155;81;20990;-63
2021/11/14 07:47:34;;;;;;;69.13;47.43;;;;;;;2.34;85.40;101542.42;1770032;80;21040;-63
2021/11/14 07:50:02;;;;;;;73.17;47.43;;;;;;;2.30;85.43;101535.69;1765736;80;21018;-62
2021/11/14 07:52:30;;;;;;;68.60;46.70;;;;;;;2.34;85.51;101541.10;1760487;81;21521;-65
2021/11/14 07:54:58;;;;;;;74.60;45.80;;;;;;;2.47;85.44;101539.79;1766422;80;21006;-63
2021/11/14 07:57:26;;;;;;;70.43;47.77;;;;;;;2.59;85.43;101545.98;1759603;81;21097;-64
2021/11/14 07:59:54;;;;;;;69.27;46.13;;;;;;;2.69;85.48;101537.34;1757435;81;21034;-64
2021/11/14 08:02:20;;;;;;;71.00;44.43;;;;;;;2.71;84.63;101539.84;1758657;79;21027;-64
2021/11/14 08:04:46;;;;;;;68.35;45.92;;;;;;;2.69;84.37;101534.72;1770103;79;21597;-64
2021/11/14 08:07:12;;;;;;;62.75;39.20;;;;;;;2.77;84.49;101523.64;1759593;79;21015;-64
2021/11/14 08:09:38;;;;;;;66.55;44.67;;;;;;;2.89;84.07;101528.02;1763549;79;21304;-61
2021/11/14 08:12:06;;;;;;;67.27;44.85;;;;;;;2.88;83.37;101535.57;1757178;79;21055;-63
2021/11/14 08:14:34;;;;;;;71.03;48.90;;;;;;;2.90;83.72;101532.80;1766318;79;21030;-64
2021/11/14 08:17:00;;;;;;;66.35;44.90;;;;;;;2.93;84.01;101527.33;1763145;79;21506;-63
2021/11/14 08:19:26;;;;;;;73.62;49.77;;;;;;;2.98;83.83;101530.48;1764587;79;21031;-65
2021/11/14 08:21:52;;;;;;;68.55;47.55;;;;;;;2.94;83.13;101522.44;1759378;79;21024;-64
2021/11/14 08:24:19;;;;;;;72.97;51.90;;;;;;;2.90;83.32;101523.58;1762122;80;21252;-63
2021/11/14 08:26:45;;;;;;;74.30;47.67;;;;;;;2.92;83.47;101521.23;1760989;81;21115;-64
2021/11/14 08:29:12;;;;;;;66.15;44.33;;;;;;;3.01;83.43;101516.24;1763737;81;21642;-65
2021/11/14 08:31:39;;;;;;;56.60;43.60;;;;;;;3.06;83.19;101516.27;1756654;81;21098;-62
2021/11/14 08:34:07;;;;;;;59.73;43.27;;;;;;;3.01;83.07;101512.29;1757920;81;20982;-62
2021/11/14 08:36:33;;;;;;;59.88;42.35;;;;;;;2.94;83.43;101502.69;1758219;81;21015;-64
2021/11/14 08:38:59;;;;;;;;;;;;;;;2.95;83.67;101501.72;1763589;81;21147;-62
2021/11/14 08:41:26;;;;;;;59.47;40.93;;;;;;;3.04;83.51;101508.13;1760272;80;20961;-64
2021/11/14 08:43:53;;;;;;;58.57;41.00;;;;;;;2.83;83.49;101463.95;1758410;81;21253;-62
2021/11/14 08:46:20;;;;;;;67.85;45.58;;;;;;;3.20;83.40;101507.39;1773064;79;20994;-67
2021/11/14 08:48:46;;;;;;;54.90;38.03;;;;;;;3.25;83.47;101503.92;1767072;81;21091;-66
2021/11/14 08:51:13;;;;;;;53.48;39.08;;;;;;;3.35;83.44;101504.57;1764994;80;21002;-65
2021/11/14 08:53:39;;;;;;;52.38;38.95;;;;;;;3.41;82.66;101499.70;1758617;79;20983;-64
2021/11/14 08:56:05;;;;;;;51.92;37.10;;;;;;;3.46;82.32;101497.55;1753556;79;20956;-64
2021/11/14 08:58:34;;;;;;;;;;;;;;;3.54;82.17;101500.92;1759493;80;21034;-63
2021/11/14 09:01:03;;;;;;;54.97;38.87;;;;;;;3.60;82.25;101494.36;1748160;80;20605;-63
2021/11/14 09:03:31;;;;;;;52.97;40.13;;;;;;;3.57;82.38;101496.76;1761580;81;21031;-62
2021/11/14 09:05:57;;;;;;;55.27;39.30;;;;;;;3.65;82.46;101503.61;1764478;80;21104;-64
2021/11/14 09:08:24;;;;;;;52.50;40.73;;;;;;;3.75;81.88;101505.10;1760692;80;21114;-63
2021/11/14 09:10:51;;;;;;;55.43;40.10;;;;;;;3.93;81.75;101502.02;1763296;80;21067;-64
2021/11/14 09:13:17;;;;;;;55.30;41.07;;;;;;;4.09;81.51;101500.73;1748643;81;21057;-62
2021/11/14 09:15:46;;;;;;;51.43;40.93;;;;;;;4.24;81.27;101499.20;1757734;81;21074;-63
2021/11/14 09:18:18;;;;;;;54.67;41.03;;;;;;;4.33;80.35;101497.14;1759998;81;21046;-64
2021/11/14 09:20:46;;;;;;;56.47;42.67;;;;;;;4.34;80.00;101494.88;1766063;81;21078;-62
2021/11/14 09:23:15;;;;;;;57.03;39.57;;;;;;;4.36;80.20;101495.60;1754116;81;21026;-64
2021/11/14 09:25:43;;;;;;;55.00;39.27;;;;;;;4.44;79.55;101495.00;1746842;81;21074;-64
2021/11/14 09:28:10;;;;;;;55.03;38.83;;;;;;;4.50;79.04;101491.87;1743929;80;21010;-64
2021/11/14 09:30:37;;;;;;;56.93;41.73;;;;;;;4.52;78.76;101486.47;1761889;81;20998;-63
2021/11/14 09:33:06;;;;;;;56.80;42.80;;;;;;;4.49;78.82;101489.72;1766164;80;21070;-65
2021/11/14 09:35:34;;;;;;;63.87;44.87;;;;;;;4.45;78.88;101483.49;1764609;81;21018;-63
2021/11/14 09:38:01;;;;;;;63.90;45.73;;;;;;;4.41;79.10;101486.02;1739749;81;21048;-64
2021/11/14 09:40:26;;;;;;;;;;;;;;;4.41;79.28;101485.53;1752813;80;21061;-66
2021/11/14 09:42:53;;;;;;;59.07;43.27;;;;;;;4.44;78.92;101474.70;1764855;80;20124;-65
2021/11/14 09:45:19;;;;;;;55.00;41.25;;;;;;;4.47;79.09;101469.20;1773845;80;21006;-62
2021/11/14 09:47:46;;;;;;;46.80;35.57;;;;;;;4.58;79.09;101467.53;1769094;79;21054;-63
2021/11/14 09:50:13;;;;;;;56.37;43.02;;;;;;;4.65;78.52;101470.02;1767781;79;21042;-64
2021/11/14 09:52:40;;;;;;;61.50;44.48;;;;;;;4.57;78.34;101461.88;1763933;80;21543;-63
2021/11/14 09:55:10;;;;;;;69.10;46.73;;;;;;;4.52;78.86;101460.94;1754087;80;21114;-65
2021/11/14 09:57:41;;;;;;;60.30;43.27;;;;;;;4.52;78.91;101466.67;1758307;81;22014;-64
2021/11/14 10:00:12;;;;;;;62.13;44.67;;;;;;;4.58;78.99;101463.08;1747474;81;21554;-65
2021/11/14 10:02:40;;;;;;;65.73;48.27;;;;;;;4.68;78.67;101458.73;1761125;81;21568;-64
2021/11/14 10:05:11;;;;;;;63.83;47.40;;;;;;;4.70;78.38;101452.50;1757778;81;21524;-66
2021/11/14 10:07:41;;;;;;;63.83;48.70;;;;;;;4.63;78.61;101453.45;1722486;80;21378;-64
2021/11/14 10:10:10;;;;;;;73.70;53.87;;;;;;;4.57;78.99;101457.42;1739634;81;21012;-65
2021/11/14 10:12:38;;;;;;;76.67;55.03;;;;;;;4.61;79.30;101448.78;1774154;79;21018;-63
2021/11/14 10:15:14;;;;;;;70.90;51.97;;;;;;;4.66;79.14;101451.91;1772919;81;21121;-64
2021/11/14 10:17:51;;;;;;;72.33;53.23;;;;;;;4.70;78.83;101456.46;1741398;80;21488;-65
2021/11/14 10:20:25;;;;;;;68.20;51.23;;;;;;;4.73;78.65;101453.55;1741496;80;21018;-64
2021/11/14 10:23:00;;;;;;;70.83;52.80;;;;;;;4.75;78.71;101452.98;1750903;80;21034;-64
2021/11/14 10:25:30;;;;;;;69.77;52.87;;;;;;;4.76;78.56;101450.19;1791759;79;20951;-64
2021/11/14 10:28:01;;;;;;;67.70;48.50;;;;;;;4.78;78.99;101453.55;1772753;79;22115;-64
2021/11/14 10:30:30;;;;;;;70.17;51.47;;;;;;;4.80;78.87;101452.97;1772260;79;20963;-63
2021/11/14 10:33:05;;;;;;;73.17;49.67;;;;;;;4.78;78.70;101453.55;1769830;79;21536;-63
2021/11/14 10:35:33;;;;;;;68.20;47.70;;;;;;;4.75;78.75;101445.89;1780213;79;20994;-64
2021/11/14 10:38:02;;;;;;;63.23;46.50;;;;;;;4.76;78.94;101441.44;1789265;79;21078;-63
2021/11/14 10:40:36;;;;;;;62.23;43.17;;;;;;;4.78;79.01;101439.02;1792299;79;21058;-63
2021/11/14 10:43:04;;;;;;;65.50;49.10;;;;;;;4.82;79.09;101425.94;1798390;79;21102;-62
2021/11/14 10:45:36;;;;;;;67.63;48.83;;;;;;;4.82;79.38;101421.98;1797850;79;21018;-63
2021/11/14 10:48:13;;;;;;;66.50;49.67;;;;;;;4.86;79.44;101427.38;1789325;79;20980;-64
2021/11/14 10:50:44;;;;;;;66.07;48.55;;;;;;;4.90;79.55;101427.97;1782408;79;21557;-64
2021/11/14 10:53:15;;;;;;;59.93;42.00;;;;;;;5.02;79.35;101426.12;1770566;79;20988;-63
2021/11/14 10:55:50;;;;;;;69.80;46.50;;;;;;;5.12;78.96;101432.31;1766071;79;21753;-65
2021/11/14 10:58:17;;;;;;;67.43;44.50;;;;;;;5.20;78.72;101434.35;1769033;81;20963;-63
2021/11/14 11:00:47;;;;;;;62.93;46.87;;;;;;;5.23;78.75;101430.12;1769111;80;22186;-64
2021/11/14 11:03:14;;;;;;;72.70;49.77;;;;;;;5.26;78.70;101431.20;1768545;81;20999;-65
2021/11/14 11:05:42;;;;;;;69.33;49.47;;;;;;;5.22;78.76;101429.78;1755934;81;21036;-65
2021/11/14 11:08:23;;;;;;;68.27;47.57;;;;;;;5.12;79.09;101424.88;1775463;80;21562;-62
2021/11/14 11:10:58;;;;;;;62.50;45.23;;;;;;;5.05;79.43;101422.74;1753505;80;20999;-63
2021/11/14 11:13:41;;;;;;;71.83;49.97;;;;;;;5.07;79.50;101418.66;1744329;80;21093;-64
2021/11/14 11:16:14;;;;;;;68.73;47.77;;;;;;;5.11;79.67;101428.01;1769330;80;21078;-63
2021/11/14 11:18:44;;;;;;;74.23;47.97;;;;;;;5.18;79.76;101426.55;1772456;79;20991;-64
2021/11/14 11:21:14;;;;;;;68.30;50.80;;;;;;;5.23;79.87;101420.86;1776200;79;21077;-65
2021/11/14 11:23:48;;;;;;;61.87;43.20;;;;;;;5.27;79.74;101419.64;1752598;79;21046;-65
2021/11/14 11:26:18;;;;;;;64.50;45.40;;;;;;;5.35;79.69;101425.61;1729568;82;21071;-64
2021/11/14 11:28:48;;;;;;;66.70;45.53;;;;;;;5.44;79.28;101420.88;1733039;82;21677;-66